PWSweather.com
Personal Weather Stations
Station Observations
UISISLE1
Newport, Isle ofWight, ISLE OF WIGHT PO30 2JX

NewportIsle ofWight, ISLE OF WIGHT PO30 2JX

Lat: 50.72, Lon: -1.27

Elevation: 45

Station Type: Davis Vantage Pro Plus

http://www.isleofwightweather.co.uk

Latest ConditionsUpdated 3:30:10 PM GMT Thursday, Jun 21, 2018
Currently Today's Max Today's Min Today's Average
Temperature 68.0°F20.0°C 68.6°F20.3°C 53.8°F12.1°C 59.7°F15.4°C
Dew Point 44.0°F6.7°C 55.1°F12.8°C 42.9°F6.1°C 46.1°F7.8°C
Winds 6.6 mph N10.6 kmh N 12.2 mph -19.6 kmh - - 6.9 mph 11.1 kmh
Wind Gusts 11.3 mph18.2 kmh 17.5 mph28.2 kmh - -
Humidity 42% 86% 40% 62%
Pressure 30.33 in1027.1 mb 30.33 in1027.1 mb 30.16 in1021.3 mb -
Hour Temp Dew Point Humidity Winds Wind Gusts Pressure Precip Precip Rate Daily Precip Total
03:30 PM 68.0°F20.0°C 44.0°F6.7°C 42% 6.6 mph N10.6 kmh N 11.3 mph18.2 kmh 30.33 in1027.1 mb - 0.00 in0.0 mm 0.00 in0.0 mm
03:15 PM 68.4°F20.2°C 43.7°F6.5°C 41% 7.7 mph NNW12.4 kmh NNW 9.3 mph15.0 kmh 30.33 in1027.1 mb - 0.00 in0.0 mm 0.00 in0.0 mm
03:00 PM 68.6°F20.3°C 43.3°F6.3°C 40% 9.5 mph N15.3 kmh N 14.4 mph23.2 kmh 30.33 in1027.1 mb - 0.00 in0.0 mm 0.00 in0.0 mm
02:45 PM 68.0°F20.0°C 43.4°F6.3°C 41% 4.4 mph NNW7.1 kmh NNW 7.0 mph11.3 kmh 30.33 in1027.1 mb - 0.00 in0.0 mm 0.00 in0.0 mm
02:30 PM 68.1°F20.1°C 42.9°F6.1°C 40% 8.0 mph E12.9 kmh E 9.3 mph15.0 kmh 30.33 in1027.1 mb - 0.00 in0.0 mm 0.00 in0.0 mm
02:15 PM 67.9°F19.9°C 43.3°F6.3°C 41% 9.9 mph NNW15.9 kmh NNW 12.4 mph20.0 kmh 30.33 in1027.1 mb - 0.00 in0.0 mm 0.00 in0.0 mm
02:00 PM 67.8°F19.9°C 43.9°F6.6°C 42% 5.3 mph NNE8.5 kmh NNE 9.3 mph15.0 kmh 30.32 in1026.8 mb - 0.00 in0.0 mm 0.00 in0.0 mm
01:45 PM 67.5°F19.7°C 44.2°F6.8°C 43% 9.5 mph NW15.3 kmh NW 11.3 mph18.2 kmh 30.32 in1026.8 mb - 0.00 in0.0 mm 0.00 in0.0 mm
01:30 PM 67.1°F19.5°C 44.5°F6.9°C 44% 8.0 mph N12.9 kmh N 12.4 mph20.0 kmh 30.32 in1026.8 mb - 0.00 in0.0 mm 0.00 in0.0 mm
01:15 PM 66.7°F19.3°C 44.7°F7.1°C 45% 9.0 mph NNE14.5 kmh NNE 13.4 mph21.6 kmh 30.32 in1026.8 mb - 0.00 in0.0 mm 0.00 in0.0 mm
01:00 PM 66.9°F19.4°C 44.3°F6.8°C 44% 6.5 mph NNW10.5 kmh NNW 9.3 mph15.0 kmh 30.32 in1026.8 mb - 0.00 in0.0 mm 0.00 in0.0 mm
12:45 PM 66.8°F19.3°C 46.4°F8.0°C 48% 9.3 mph NNW15.0 kmh NNW 12.4 mph20.0 kmh 30.31 in1026.4 mb - 0.00 in0.0 mm 0.00 in0.0 mm
12:30 PM 66.6°F19.2°C 45.7°F7.6°C 47% 9.7 mph N15.6 kmh N 13.4 mph21.6 kmh 30.31 in1026.4 mb - 0.00 in0.0 mm 0.00 in0.0 mm
12:15 PM 66.0°F18.9°C 45.7°F7.6°C 48% 7.0 mph NNW11.3 kmh NNW 13.4 mph21.6 kmh 30.31 in1026.4 mb - 0.00 in0.0 mm 0.00 in0.0 mm
12:00 PM 65.9°F18.8°C 46.2°F7.9°C 49% 4.9 mph NNW7.9 kmh NNW 10.3 mph16.6 kmh 30.31 in1026.4 mb - 0.00 in0.0 mm 0.00 in0.0 mm
11:45 AM 64.4°F18.0°C 45.4°F7.4°C 50% 7.4 mph NNW11.9 kmh NNW 11.3 mph18.2 kmh 30.31 in1026.4 mb - 0.00 in0.0 mm 0.00 in0.0 mm
11:30 AM 64.1°F17.8°C 46.1°F7.8°C 52% 7.9 mph NNW12.7 kmh NNW 13.4 mph21.6 kmh 30.31 in1026.4 mb - 0.00 in0.0 mm 0.00 in0.0 mm
11:15 AM 63.8°F17.7°C 45.8°F7.7°C 52% 8.4 mph N13.5 kmh N 10.3 mph16.6 kmh 30.31 in1026.4 mb - 0.00 in0.0 mm 0.00 in0.0 mm
11:00 AM 63.7°F17.6°C 46.2°F7.9°C 53% 6.2 mph NW10.0 kmh NW 7.2 mph11.6 kmh 30.31 in1026.4 mb - 0.00 in0.0 mm 0.00 in0.0 mm
10:45 AM 63.1°F17.3°C 46.2°F7.9°C 54% 7.5 mph NNW12.1 kmh NNW 8.2 mph13.2 kmh 30.31 in1026.4 mb - 0.00 in0.0 mm 0.00 in0.0 mm
10:30 AM 63.1°F17.3°C 46.6°F8.1°C 55% 9.1 mph N14.6 kmh N 12.4 mph20.0 kmh 30.31 in1026.4 mb - 0.00 in0.0 mm 0.00 in0.0 mm
10:15 AM 62.1°F16.7°C 46.2°F7.9°C 56% 6.4 mph NW10.3 kmh NW 8.2 mph13.2 kmh 30.31 in1026.4 mb - 0.00 in0.0 mm 0.00 in0.0 mm
10:00 AM 61.0°F16.1°C 45.7°F7.6°C 57% 6.4 mph NNW10.3 kmh NNW 10.3 mph16.6 kmh 30.31 in1026.4 mb - 0.00 in0.0 mm 0.00 in0.0 mm
09:45 AM 60.5°F15.8°C 45.7°F7.6°C 58% 7.8 mph NNW12.6 kmh NNW 10.3 mph16.6 kmh 30.30 in1026.1 mb - 0.00 in0.0 mm 0.00 in0.0 mm
09:30 AM 59.7°F15.4°C 45.8°F7.7°C 60% 5.1 mph NW8.2 kmh NW 9.3 mph15.0 kmh 30.30 in1026.1 mb - 0.00 in0.0 mm 0.00 in0.0 mm
09:15 AM 58.9°F14.9°C 45.5°F7.5°C 61% 7.3 mph NNW11.7 kmh NNW 11.3 mph18.2 kmh 30.30 in1026.1 mb - 0.00 in0.0 mm 0.00 in0.0 mm
09:00 AM 59.0°F15.0°C 46.0°F7.8°C 62% 7.0 mph NW11.3 kmh NW 8.2 mph13.2 kmh 30.30 in1026.1 mb - 0.00 in0.0 mm 0.00 in0.0 mm
08:45 AM 58.1°F14.5°C 45.1°F7.3°C 62% 9.2 mph NW14.8 kmh NW 10.3 mph16.6 kmh 30.30 in1026.1 mb - 0.00 in0.0 mm 0.00 in0.0 mm
08:30 AM 57.7°F14.3°C 45.2°F7.3°C 63% 8.6 mph N13.8 kmh N 11.3 mph18.2 kmh 30.30 in1026.1 mb - 0.00 in0.0 mm 0.00 in0.0 mm
08:15 AM 57.2°F14.0°C 44.3°F6.8°C 62% 9.0 mph NNW14.5 kmh NNW 10.3 mph16.6 kmh 30.30 in1026.1 mb - 0.00 in0.0 mm 0.00 in0.0 mm
08:00 AM 56.7°F13.7°C 44.7°F7.1°C 64% 7.7 mph N12.4 kmh N 12.4 mph20.0 kmh 30.29 in1025.7 mb - 0.00 in0.0 mm 0.00 in0.0 mm
07:45 AM 56.2°F13.4°C 45.4°F7.4°C 67% 7.9 mph N12.7 kmh N 11.3 mph18.2 kmh 30.28 in1025.4 mb - 0.00 in0.0 mm 0.00 in0.0 mm
07:30 AM 55.4°F13.0°C 46.2°F7.9°C 71% 6.7 mph N10.8 kmh N 12.4 mph20.0 kmh 30.28 in1025.4 mb - 0.00 in0.0 mm 0.00 in0.0 mm
07:15 AM 54.9°F12.7°C 45.7°F7.6°C 71% 9.0 mph N14.5 kmh N 12.4 mph20.0 kmh 30.28 in1025.4 mb - 0.00 in0.0 mm 0.00 in0.0 mm
07:00 AM 54.7°F12.6°C 46.6°F8.1°C 74% 9.4 mph NW15.1 kmh NW 11.3 mph18.2 kmh 30.28 in1025.4 mb - 0.00 in0.0 mm 0.00 in0.0 mm
06:45 AM 54.7°F12.6°C 46.9°F8.3°C 75% 1.5 mph NW2.4 kmh NW 4.1 mph6.6 kmh 30.27 in1025.1 mb - 0.00 in0.0 mm 0.00 in0.0 mm
06:30 AM 54.5°F12.5°C 46.4°F8.0°C 74% 5.5 mph N8.9 kmh N 7.2 mph11.6 kmh 30.27 in1025.1 mb - 0.00 in0.0 mm 0.00 in0.0 mm
06:15 AM 54.5°F12.5°C 47.1°F8.4°C 76% 4.8 mph NNW7.7 kmh NNW 9.3 mph15.0 kmh 30.26 in1024.7 mb - 0.00 in0.0 mm 0.00 in0.0 mm
06:00 AM 54.1°F12.3°C 46.3°F7.9°C 75% 6.8 mph NNW10.9 kmh NNW 7.2 mph11.6 kmh 30.26 in1024.7 mb - 0.00 in0.0 mm 0.00 in0.0 mm
05:45 AM 53.9°F12.2°C 46.9°F8.3°C 77% 4.3 mph NW6.9 kmh NW 6.2 mph10.0 kmh 30.25 in1024.4 mb - 0.00 in0.0 mm 0.00 in0.0 mm
05:30 AM 53.8°F12.1°C 47.1°F8.4°C 78% 4.8 mph N7.7 kmh N 7.2 mph11.6 kmh 30.25 in1024.4 mb - 0.00 in0.0 mm 0.00 in0.0 mm
05:15 AM 53.8°F12.1°C 47.1°F8.4°C 78% 7.8 mph N12.6 kmh N 11.3 mph18.2 kmh 30.25 in1024.4 mb - 0.00 in0.0 mm 0.00 in0.0 mm
05:00 AM 53.9°F12.2°C 47.2°F8.4°C 78% 6.1 mph N9.8 kmh N 9.3 mph15.0 kmh 30.24 in1024.0 mb - 0.00 in0.0 mm 0.00 in0.0 mm
04:45 AM 54.0°F12.2°C 47.0°F8.3°C 77% 3.2 mph NNW5.1 kmh NNW 8.2 mph13.2 kmh 30.24 in1024.0 mb - 0.00 in0.0 mm 0.00 in0.0 mm
04:30 AM 54.2°F12.3°C 47.1°F8.4°C 77% 7.0 mph NNW11.3 kmh NNW 10.3 mph16.6 kmh 30.23 in1023.7 mb - 0.00 in0.0 mm 0.00 in0.0 mm
04:15 AM 54.2°F12.3°C 46.8°F8.2°C 76% 3.5 mph NNW5.6 kmh NNW 4.1 mph6.6 kmh 30.23 in1023.7 mb - 0.00 in0.0 mm 0.00 in0.0 mm
04:00 AM 54.1°F12.3°C 46.3°F7.9°C 75% 3.1 mph N5.0 kmh N 5.1 mph8.2 kmh 30.22 in1023.4 mb - 0.00 in0.0 mm 0.00 in0.0 mm
03:45 AM 54.3°F12.4°C 46.2°F7.9°C 74% 5.7 mph N9.2 kmh N 8.2 mph13.2 kmh 30.22 in1023.4 mb - 0.00 in0.0 mm 0.00 in0.0 mm
03:30 AM 54.7°F12.6°C 46.2°F7.9°C 73% 4.2 mph N6.8 kmh N 7.2 mph11.6 kmh 30.21 in1023.0 mb - 0.00 in0.0 mm 0.00 in0.0 mm
03:15 AM 54.9°F12.7°C 46.0°F7.8°C 72% 4.9 mph N7.9 kmh N 7.2 mph11.6 kmh 30.21 in1023.0 mb - 0.00 in0.0 mm 0.00 in0.0 mm
03:00 AM 55.2°F12.9°C 46.0°F7.8°C 71% 2.5 mph N4.0 kmh N 6.2 mph10.0 kmh 30.21 in1023.0 mb - 0.00 in0.0 mm 0.00 in0.0 mm
02:45 AM 55.5°F13.1°C 46.3°F7.9°C 71% 8.2 mph N13.2 kmh N 12.4 mph20.0 kmh 30.21 in1023.0 mb - 0.00 in0.0 mm 0.00 in0.0 mm
02:30 AM 55.6°F13.1°C 46.3°F7.9°C 71% 12.2 mph N19.6 kmh N 14.4 mph23.2 kmh 30.21 in1023.0 mb - 0.00 in0.0 mm 0.00 in0.0 mm
02:15 AM 56.1°F13.4°C 46.4°F8.0°C 70% 4.7 mph N7.6 kmh N 8.2 mph13.2 kmh 30.20 in1022.7 mb - 0.00 in0.0 mm 0.00 in0.0 mm
02:00 AM 56.4°F13.6°C 46.4°F8.0°C 69% 6.9 mph NE11.1 kmh NE 10.3 mph16.6 kmh 30.19 in1022.4 mb - 0.00 in0.0 mm 0.00 in0.0 mm
01:45 AM 56.7°F13.7°C 46.3°F7.9°C 68% 7.9 mph N12.7 kmh N 11.3 mph18.2 kmh 30.19 in1022.4 mb - 0.00 in0.0 mm 0.00 in0.0 mm
01:30 AM 57.0°F13.9°C 46.5°F8.1°C 68% 6.6 mph N10.6 kmh N 11.3 mph18.2 kmh 30.18 in1022.0 mb - 0.00 in0.0 mm 0.00 in0.0 mm
01:15 AM 57.6°F14.2°C 47.5°F8.6°C 69% 7.2 mph NNW11.6 kmh NNW 9.3 mph15.0 kmh 30.18 in1022.0 mb - 0.00 in0.0 mm 0.00 in0.0 mm
01:00 AM 58.1°F14.5°C 47.6°F8.7°C 68% 7.3 mph N11.7 kmh N 10.3 mph16.6 kmh 30.17 in1021.7 mb - 0.00 in0.0 mm 0.00 in0.0 mm
12:45 AM 58.4°F14.7°C 48.3°F9.1°C 69% 7.0 mph N11.3 kmh N 8.2 mph13.2 kmh 30.17 in1021.7 mb - 0.00 in0.0 mm 0.00 in0.0 mm
12:30 AM 58.9°F14.9°C 50.6°F10.3°C 74% 9.0 mph N14.5 kmh N 17.5 mph28.2 kmh 30.17 in1021.7 mb - 0.00 in0.0 mm 0.00 in0.0 mm
12:15 AM 59.0°F15.0°C 52.1°F11.2°C 78% 7.2 mph N11.6 kmh N 11.3 mph18.2 kmh 30.16 in1021.3 mb - 0.00 in0.0 mm 0.00 in0.0 mm
12:00 AM 59.3°F15.2°C 55.1°F12.8°C 86% 7.9 mph N12.7 kmh N 12.4 mph20.0 kmh 30.16 in1021.3 mb - 0.00 in0.0 mm 0.00 in0.0 mm